Zephyr, Texas
Current Conditions -  °F | °C
As of 3:15 AM on Thursday 23 Oct 2014 (Local Time) from KBWD Reporting Station
Overcast Overcast  
Wind Chill: 63°   Ceiling: 3000
Heat Index: 63°   Visibility: 10mi
Dew Point: 57°   Wind: 5mph
Humidity: 82%   Direction: 90°E
Pressure: 30.12"   Gusts: NA
Location:  31.68°N, 98.79°W
Report Text: KBWD 230815Z AUTO 09004KT 10SM BKN030 OVC065 17/14 A3012 RMK AO2
Loading
Personal Weather Stations






























Interactive Weather Map
Tropical Storm Tracking
New forecast layout! Learn more

10-Day Weather Forecast

Advertisements
Track Severe Weather on mobile